Time;durP1;ratioP1;P1;durP2;ratioP2;P2;SDS_P1;SDS_P2;PMS_P1;PMS_P2;Temp;Humidity;BMP_temperature;BMP_pressure;BME280_temperature;BME280_humidity;BME280_pressure;Samples;Min_cycle;Max_cycle;Signal;HPM_P1;HPM_P2
2023/04/19 00:00:44;;;;;;;19.80;10.40;;;8.00;99.90;;;;;;4994854;28;20048;-80
2023/04/19 00:03:10;;;;;;;18.58;10.07;;;8.00;99.90;;;;;;5011453;28;20078;-82
2023/04/19 00:05:37;;;;;;;19.92;10.95;;;8.40;99.90;;;;;;4995215;28;20054;-83
2023/04/19 00:08:06;;;;;;;18.73;10.18;;;8.60;99.90;;;;;;4994444;28;20125;-82
2023/04/19 00:10:32;;;;;;;18.77;10.32;;;8.30;99.90;;;;;;4996901;28;20447;-82
2023/04/19 00:12:58;;;;;;;20.83;10.10;;;8.10;99.90;;;;;;5016254;28;20084;-82
2023/04/19 00:15:24;;;;;;;19.45;10.02;;;8.10;99.90;;;;;;4998717;28;20112;-82
2023/04/19 00:17:50;;;;;;;16.25;9.52;;;8.10;99.90;;;;;;5006905;28;20109;-83
2023/04/19 00:20:15;;;;;;;19.60;9.90;;;8.10;99.90;;;;;;5022689;28;20478;-82
2023/04/19 00:22:41;;;;;;;18.92;9.57;;;8.10;99.90;;;;;;4998294;28;20060;-82
2023/04/19 00:25:07;;;;;;;16.88;9.50;;;8.00;99.90;;;;;;4998220;28;20502;-82
2023/04/19 00:27:32;;;;;;;15.25;8.82;;;8.00;99.90;;;;;;4998530;28;20084;-82
2023/04/19 00:29:58;;;;;;;16.90;9.48;;;8.00;99.90;;;;;;4997135;28;20080;-82
2023/04/19 00:32:24;;;;;;;16.23;8.90;;;8.00;99.90;;;;;;4998425;28;20073;-82
2023/04/19 00:34:49;;;;;;;16.90;8.57;;;8.00;99.90;;;;;;4998367;28;20522;-82
2023/04/19 00:37:15;;;;;;;17.27;8.55;;;8.00;99.90;;;;;;5014801;28;20183;-82
2023/04/19 00:39:41;;;;;;;15.35;8.95;;;8.00;99.90;;;;;;5015626;28;20123;-82
2023/04/19 00:42:06;;;;;;;15.48;8.38;;;8.90;99.90;;;;;;4997819;28;20133;-82
2023/04/19 00:44:32;;;;;;;17.35;8.63;;;8.00;99.90;;;;;;4996856;28;20038;-82
2023/04/19 00:46:59;;;;;;;16.45;8.65;;;8.00;99.90;;;;;;5013427;28;20563;-83
2023/04/19 00:49:26;;;;;;;15.40;8.45;;;8.10;99.90;;;;;;5015291;28;20038;-82
2023/04/19 00:51:52;;;;;;;17.95;9.10;;;8.00;99.90;;;;;;4996859;28;20393;-82
2023/04/19 00:54:18;;;;;;;15.05;7.82;;;8.00;99.90;;;;;;5015249;28;20038;-82
2023/04/19 00:56:44;;;;;;;16.52;8.57;;;8.00;99.90;;;;;;4997933;28;20069;-82
2023/04/19 00:59:11;;;;;;;14.23;8.05;;;8.00;99.90;;;;;;4996771;28;20046;-82
2023/04/19 01:01:38;;;;;;;16.20;7.75;;;8.70;99.90;;;;;;4997634;28;20038;-82
2023/04/19 01:04:05;;;;;;;14.18;7.85;;;8.00;99.90;;;;;;5015523;28;20077;-82
2023/04/19 01:06:31;;;;;;;14.43;7.65;;;8.00;99.90;;;;;;4999293;28;20480;-82
2023/04/19 01:08:57;;;;;;;14.95;7.78;;;8.00;99.90;;;;;;5004571;28;20037;-83
2023/04/19 01:11:23;;;;;;;15.90;7.68;;;8.00;99.90;;;;;;4998135;28;20045;-82
2023/04/19 01:13:49;;;;;;;15.43;7.55;;;8.00;99.90;;;;;;5016658;28;20033;-82
2023/04/19 01:16:20;;;;;;;14.45;7.00;;;8.00;99.90;;;;;;5004722;28;20058;-82
2023/04/19 01:18:46;;;;;;;14.95;7.75;;;8.00;99.90;;;;;;5015605;28;20050;-82
2023/04/19 01:21:12;;;;;;;14.10;7.35;;;8.10;99.90;;;;;;5014227;28;20172;-83
2023/04/19 01:23:40;;;;;;;13.10;6.97;;;8.00;99.90;;;;;;4997227;28;20132;-82
2023/04/19 01:26:06;;;;;;;14.87;7.70;;;8.00;99.90;;;;;;5013905;28;20093;-82
2023/04/19 01:28:32;;;;;;;15.67;7.63;;;8.00;99.90;;;;;;5014576;28;20517;-82
2023/04/19 01:31:00;;;;;;;14.97;7.30;;;8.00;99.90;;;;;;4997017;28;20046;-83
2023/04/19 01:33:25;;;;;;;13.00;7.30;;;8.70;99.90;;;;;;5013768;28;20064;-82
2023/04/19 01:35:51;;;;;;;13.67;7.30;;;8.00;99.90;;;;;;5014973;28;20402;-82
2023/04/19 01:38:17;;;;;;;14.55;7.15;;;7.90;99.90;;;;;;5014576;28;20049;-82
2023/04/19 01:40:42;;;;;;;14.25;7.65;;;7.90;99.90;;;;;;4996518;28;20045;-82
2023/04/19 01:43:15;;;;;;;15.35;7.63;;;7.90;99.90;;;;;;4996740;28;20054;-82
2023/04/19 01:45:41;;;;;;;15.18;8.18;;;7.80;99.90;;;;;;4997474;28;20042;-82
2023/04/19 01:48:06;;;;;;;16.00;8.05;;;7.70;99.90;;;;;;4995931;28;20053;-82
2023/04/19 01:50:32;;;;;;;15.68;8.00;;;7.70;99.90;;;;;;4996818;28;20477;-82
2023/04/19 01:52:58;;;;;;;14.27;7.90;;;8.40;99.90;;;;;;4996613;28;20049;-82
2023/04/19 01:55:24;;;;;;;14.00;8.05;;;7.70;99.90;;;;;;5013409;28;20125;-82
2023/04/19 01:57:51;;;;;;;14.88;7.38;;;7.60;99.90;;;;;;4996489;28;20046;-82
2023/04/19 02:00:17;;;;;;;13.93;7.38;;;7.60;99.90;;;;;;5014008;28;20033;-82
2023/04/19 02:02:43;;;;;;;14.70;8.05;;;7.70;99.90;;;;;;4995815;28;20056;-82
2023/04/19 02:05:10;;;;;;;15.23;8.43;;;7.60;99.90;;;;;;5013264;28;20033;-82
2023/04/19 02:07:36;;;;;;;15.68;8.23;;;7.60;99.90;;;;;;5014099;28;20046;-82
2023/04/19 02:10:02;;;;;;;16.25;8.02;;;7.60;99.90;;;;;;4995581;28;20045;-82
2023/04/19 02:12:29;;;;;;;14.43;8.05;;;7.50;99.90;;;;;;5014021;28;20042;-82
2023/04/19 02:15:00;;;;;;;15.50;7.95;;;7.50;99.90;;;;;;5003038;23;20115;-82
2023/04/19 02:17:26;;;;;;;15.10;7.45;;;7.50;99.90;;;;;;5013165;28;20050;-82
2023/04/19 02:19:52;;;;;;;14.57;7.70;;;7.40;99.90;;;;;;4996190;28;20042;-82
2023/04/19 02:22:18;;;;;;;13.32;6.97;;;8.60;99.90;;;;;;4995069;28;20041;-82
2023/04/19 02:24:44;;;;;;;13.35;7.20;;;7.40;99.90;;;;;;4996268;28;20042;-82
2023/04/19 02:27:10;;;;;;;15.40;7.05;;;7.40;99.90;;;;;;4995827;28;20033;-82
2023/04/19 02:29:37;;;;;;;16.05;7.72;;;7.40;99.90;;;;;;4995490;28;20256;-82
2023/04/19 02:32:04;;;;;;;15.95;8.20;;;7.40;99.90;;;;;;4995557;28;20050;-82
2023/04/19 02:34:31;;;;;;;15.20;6.88;;;7.40;99.90;;;;;;4996402;28;20049;-82
2023/04/19 02:36:57;;;;;;;14.70;6.82;;;7.40;99.90;;;;;;5003973;28;20046;-82
2023/04/19 02:39:22;;;;;;;13.93;6.55;;;7.40;99.90;;;;;;5015371;28;20077;-82
2023/04/19 02:41:49;;;;;;;13.90;7.20;;;7.40;99.90;;;;;;4980312;28;20133;-82
2023/04/19 02:44:17;;;;;;;12.50;6.57;;;8.60;99.90;;;;;;5025012;28;20298;-82
2023/04/19 02:46:50;;;;;;;16.40;7.10;;;7.70;99.90;;;;;;4996914;28;20397;-81
2023/04/19 02:49:17;;;;;;;14.18;6.72;;;7.40;99.90;;;;;;4995407;28;20132;-82
2023/04/19 02:51:42;;;;;;;14.05;7.00;;;7.60;99.90;;;;;;5012875;28;20038;-82
2023/04/19 02:54:08;;;;;;;13.50;7.18;;;8.40;99.90;;;;;;5013086;28;20083;-82
2023/04/19 02:56:34;;;;;;;13.68;7.05;;;7.20;99.90;;;;;;4995855;28;20042;-82
2023/04/19 02:59:00;;;;;;;14.15;7.18;;;7.20;99.90;;;;;;4994952;28;20048;-83
2023/04/19 03:01:25;;;;;;;14.02;7.70;;;7.10;99.90;;;;;;5013317;28;20088;-83
2023/04/19 03:03:51;;;;;;;14.93;6.80;;;7.00;99.90;;;;;;5013385;28;20462;-82
2023/04/19 03:06:17;;;;;;;14.25;6.90;;;6.90;99.90;;;;;;5011995;28;20042;-83
2023/04/19 03:08:42;;;;;;;16.63;7.90;;;6.80;99.90;;;;;;5013417;28;20041;-82
2023/04/19 03:11:10;;;;;;;15.73;7.25;;;7.90;99.90;;;;;;4995148;28;20490;-82
2023/04/19 03:13:35;;;;;;;14.33;7.13;;;6.60;99.90;;;;;;4997885;28;20046;-82
2023/04/19 03:16:02;;;;;;;15.40;7.03;;;6.50;99.90;;;;;;5022915;28;20181;-82
2023/04/19 03:18:28;;;;;;;13.73;7.13;;;6.40;99.90;;;;;;5014266;28;20038;-82
2023/04/19 03:20:54;;;;;;;14.40;7.20;;;6.40;99.90;;;;;;4995394;28;20124;-82
2023/04/19 03:23:20;;;;;;;14.35;7.15;;;6.30;99.90;;;;;;4995622;28;20132;-82
2023/04/19 03:25:46;;;;;;;15.45;7.43;;;6.20;99.90;;;;;;5012476;28;20394;-82
2023/04/19 03:28:11;;;;;;;14.50;7.15;;;7.00;99.90;;;;;;5012834;28;20093;-82
2023/04/19 03:30:37;;;;;;;14.70;7.45;;;6.00;99.90;;;;;;4995310;28;20037;-82
2023/04/19 03:33:03;;;;;;;16.13;7.60;;;5.90;99.90;;;;;;4994404;28;20099;-82
2023/04/19 03:35:31;;;;;;;15.13;7.88;;;5.90;99.90;;;;;;4995586;28;20042;-83
2023/04/19 03:37:56;;;;;;;15.63;8.15;;;6.30;99.90;;;;;;4994679;28;20056;-82
2023/04/19 03:40:22;;;;;;;16.15;7.63;;;5.80;99.90;;;;;;4994779;28;20034;-82
2023/04/19 03:42:47;;;;;;;14.83;7.73;;;5.70;99.90;;;;;;4995647;28;20572;-82
2023/04/19 03:45:13;;;;;;;15.70;7.47;;;5.70;99.90;;;;;;5014095;28;20049;-82
2023/04/19 03:47:39;;;;;;;14.27;7.23;;;5.60;99.90;;;;;;5016200;28;20038;-82
2023/04/19 03:50:05;;;;;;;16.80;8.02;;;5.50;99.90;;;;;;4980891;28;20048;-82
2023/04/19 03:52:31;;;;;;;16.10;7.93;;;5.50;99.90;;;;;;5016803;28;20054;-82
2023/04/19 03:55:12;;;;;;;13.77;7.43;;;5.40;99.90;;;;;;5009335;28;20502;-82
2023/04/19 03:57:38;;;;;;;14.17;7.30;;;5.20;99.90;;;;;;4998897;28;20045;-82
2023/04/19 04:00:07;;;;;;;14.85;7.00;;;5.40;99.90;;;;;;5016309;28;20430;-82
2023/04/19 04:02:36;;;;;;;14.70;7.17;;;5.40;99.90;;;;;;5016441;28;20042;-82
2023/04/19 04:05:03;;;;;;;14.27;7.03;;;5.30;99.90;;;;;;4998981;28;20133;-82
2023/04/19 04:07:29;;;;;;;13.47;6.90;;;5.30;99.90;;;;;;5003557;28;20049;-82
2023/04/19 04:09:54;;;;;;;14.40;7.63;;;5.30;99.90;;;;;;5015663;28;20034;-82
2023/04/19 04:12:20;;;;;;;14.40;7.40;;;5.80;99.90;;;;;;5024009;28;20093;-82
2023/04/19 04:14:46;;;;;;;15.40;7.37;;;5.20;99.90;;;;;;4998608;28;20058;-82
2023/04/19 04:17:11;;;;;;;12.13;6.73;;;5.20;99.90;;;;;;4996527;28;20121;-81
2023/04/19 04:19:37;;;;;;;13.63;6.90;;;5.10;99.90;;;;;;4996299;28;20042;-82
2023/04/19 04:22:03;;;;;;;15.83;7.00;;;5.10;99.90;;;;;;4995775;28;20053;-82
2023/04/19 04:24:31;;;;;;;15.83;7.30;;;5.10;99.90;;;;;;4995464;28;20093;-82
2023/04/19 04:26:59;;;;;;;13.37;6.50;;;5.10;99.90;;;;;;4996168;28;20429;-82
2023/04/19 04:29:25;;;;;;;14.03;6.57;;;5.10;99.90;;;;;;4995452;28;20121;-82
2023/04/19 04:31:51;;;;;;;13.43;7.20;;;5.00;99.90;;;;;;4996585;28;20042;-82
2023/04/19 04:34:16;;;;;;;15.17;7.23;;;5.00;99.90;;;;;;4992801;28;20046;-82
2023/04/19 04:36:42;;;;;;;16.37;7.53;;;4.90;99.90;;;;;;4976292;28;20475;-82
2023/04/19 04:39:10;;;;;;;14.27;7.27;;;4.90;99.90;;;;;;4976662;28;20047;-82
2023/04/19 04:41:40;;;;;;;14.10;7.20;;;5.10;99.90;;;;;;4956613;29;20055;-82
2023/04/19 04:44:07;;;;;;;14.47;7.47;;;4.90;99.90;;;;;;4966848;28;20046;-81
2023/04/19 04:46:33;;;;;;;15.37;7.73;;;4.80;99.90;;;;;;4975089;28;20046;-82
2023/04/19 04:48:59;;;;;;;16.93;7.57;;;4.80;99.90;;;;;;4975959;28;20055;-82
2023/04/19 04:51:26;;;;;;;14.33;7.07;;;4.80;99.90;;;;;;4974840;28;20408;-82
2023/04/19 04:53:51;;;;;;;15.13;7.00;;;5.90;99.90;;;;;;4974905;28;20053;-82
2023/04/19 04:56:17;;;;;;;15.37;7.10;;;5.80;99.90;;;;;;4974586;28;20043;-82
2023/04/19 04:58:46;;;;;;;16.03;7.20;;;4.80;99.90;;;;;;4975884;28;20562;-82
2023/04/19 05:01:11;;;;;;;16.57;7.20;;;4.70;99.90;;;;;;4974793;28;20186;-82
2023/04/19 05:03:37;;;;;;;13.30;6.57;;;4.70;99.90;;;;;;4975297;28;20046;-82
2023/04/19 05:06:03;;;;;;;14.23;7.10;;;4.70;99.90;;;;;;4975640;28;20039;-82
2023/04/19 05:08:28;;;;;;;13.70;6.80;;;4.70;99.90;;;;;;4976674;28;20372;-83
2023/04/19 05:10:54;;;;;;;14.33;6.60;;;4.70;99.90;;;;;;4975628;28;20057;-82
2023/04/19 05:13:20;;;;;;;12.73;6.30;;;6.10;99.90;;;;;;4974280;28;20050;-82
2023/04/19 05:15:45;;;;;;;13.57;6.43;;;4.70;99.90;;;;;;5011682;28;20387;-82
2023/04/19 05:18:11;;;;;;;12.30;6.03;;;4.80;99.90;;;;;;5013708;28;20049;-82
2023/04/19 05:20:39;;;;;;;14.13;6.77;;;5.20;99.90;;;;;;4997535;28;20038;-83
2023/04/19 05:23:05;;;;;;;12.40;6.00;;;4.80;99.90;;;;;;4996992;28;20475;-82
2023/04/19 05:25:31;;;;;;;13.23;6.03;;;4.90;99.90;;;;;;4996761;28;20061;-82
2023/04/19 05:27:57;;;;;;;14.57;6.07;;;4.90;99.90;;;;;;4996941;28;20077;-82
2023/04/19 05:30:22;;;;;;;12.17;5.90;;;4.90;99.90;;;;;;5014335;28;20046;-82
2023/04/19 05:32:48;;;;;;;13.13;6.07;;;5.00;99.90;;;;;;5014468;28;20038;-82
2023/04/19 05:35:14;;;;;;;13.23;6.00;;;5.00;99.90;;;;;;5020907;28;20046;-82
2023/04/19 05:37:40;;;;;;;13.17;5.60;;;5.10;99.90;;;;;;5018309;28;20091;-82
2023/04/19 05:40:09;;;;;;;13.90;5.53;;;5.10;99.90;;;;;;4996917;28;20057;-81
2023/04/19 05:42:34;;;;;;;12.53;5.63;;;5.20;99.90;;;;;;5012892;28;20034;-82
2023/04/19 05:45:00;;;;;;;13.30;5.87;;;6.20;99.90;;;;;;5002366;28;20056;-82
2023/04/19 05:47:25;;;;;;;13.00;6.07;;;5.30;99.90;;;;;;4997122;28;20061;-82
2023/04/19 05:49:51;;;;;;;11.83;5.13;;;5.40;99.90;;;;;;4996667;28;20046;-82
2023/04/19 05:52:17;;;;;;;13.67;5.63;;;5.40;99.90;;;;;;4996787;28;20046;-82
2023/04/19 05:54:43;;;;;;;14.23;6.23;;;5.40;99.90;;;;;;5013531;28;20050;-82
2023/04/19 05:57:08;;;;;;;11.60;4.67;;;5.50;99.90;;;;;;4996520;28;20050;-82
2023/04/19 05:59:34;;;;;;;11.83;4.87;;;5.60;99.90;;;;;;5014019;28;20057;-82
2023/04/19 06:02:00;;;;;;;12.57;4.77;;;5.60;99.90;;;;;;5013778;28;20101;-82
2023/04/19 06:04:26;;;;;;;12.40;5.37;;;5.70;99.90;;;;;;4996512;28;20046;-82
2023/04/19 06:06:52;;;;;;;11.03;4.83;;;5.80;99.90;;;;;;4996140;28;20049;-82
2023/04/19 06:09:18;;;;;;;10.57;4.70;;;5.80;99.90;;;;;;5012728;28;20077;-83
2023/04/19 06:11:44;;;;;;;13.23;5.00;;;5.90;99.90;;;;;;5014479;28;20100;-82
2023/04/19 06:14:12;;;;;;;14.70;5.10;;;5.90;99.90;;;;;;5015174;28;20446;-82
2023/04/19 06:16:38;;;;;;;11.03;4.30;;;6.00;99.90;;;;;;4998329;28;20184;-83
2023/04/19 06:19:05;;;;;;;14.33;4.77;;;6.10;99.90;;;;;;5014079;28;20053;-83
2023/04/19 06:21:31;;;;;;;10.90;4.60;;;6.10;99.90;;;;;;4995884;28;20050;-83
2023/04/19 06:23:57;;;;;;;10.27;4.07;;;6.60;99.90;;;;;;5014744;28;20145;-83
2023/04/19 06:26:25;;;;;;;10.57;4.13;;;6.30;99.90;;;;;;4996576;28;20446;-85
2023/04/19 06:29:00;;;;;;;9.87;4.80;;;7.10;99.90;;;;;;4995848;28;20046;-82
2023/04/19 06:31:41;;;;;;;10.27;4.47;;;6.40;99.90;;;;;;4995725;28;20052;-83
2023/04/19 06:34:07;;;;;;;10.53;4.03;;;6.30;99.90;;;;;;5013301;28;20164;-82
2023/04/19 06:36:33;;;;;;;12.97;4.40;;;6.50;99.90;;;;;;4995502;28;20163;-84
2023/04/19 06:38:58;;;;;;;12.27;4.27;;;6.80;99.90;;;;;;4996036;28;20042;-83
2023/04/19 06:41:24;;;;;;;11.23;4.07;;;6.60;99.90;;;;;;5002085;28;20479;-83
2023/04/19 06:43:50;;;;;;;11.37;3.97;;;6.70;99.90;;;;;;5013329;28;20474;-84
2023/04/19 06:46:16;;;;;;;10.30;4.50;;;7.90;99.90;;;;;;4995340;28;20052;-84
2023/04/19 06:48:41;;;;;;;9.88;4.13;;;6.90;99.90;;;;;;4995479;28;20405;-84
2023/04/19 06:51:13;;;;;;;8.80;3.78;;;7.00;99.90;;;;;;4994872;28;20046;-85
2023/04/19 06:53:39;;;;;;;9.73;3.97;;;7.10;99.90;;;;;;4995024;28;20107;-84
2023/04/19 06:56:05;;;;;;;12.48;4.05;;;7.90;99.90;;;;;;5013108;28;20058;-82
2023/04/19 06:58:31;;;;;;;10.23;3.92;;;7.20;99.90;;;;;;4993924;28;20061;-82
2023/04/19 07:00:57;;;;;;;9.00;3.38;;;7.30;99.90;;;;;;4996253;28;20038;-82
2023/04/19 07:03:23;;;;;;;10.30;3.60;;;7.40;99.90;;;;;;4996897;28;20450;-82
2023/04/19 07:06:05;;;;;;;;;;;;;;;;;;;;;
2023/04/19 07:08:49;;;;;;;9.35;3.58;;;7.60;99.90;;;;;;4941048;28;20058;-83
2023/04/19 07:11:27;;;;;;;9.30;3.42;;;8.80;99.90;;;;;;5056036;23;20141;-86
2023/04/19 07:13:56;;;;;;;9.32;3.38;;;7.10;99.90;;;;;;4998918;28;20050;-86
2023/04/19 07:16:33;;;;;;;10.02;3.40;;;9.20;99.90;;;;;;4996392;28;20124;-86
2023/04/19 07:19:22;;;;;;;8.88;3.25;;;7.60;99.90;;;;;;4994212;28;20497;-86
2023/04/19 07:21:57;;;;;;;8.27;2.90;;;8.10;99.90;;;;;;4959051;28;20383;-85
2023/04/19 07:24:29;;;;;;;10.95;3.25;;;9.20;99.90;;;;;;5012685;28;20034;-86
2023/04/19 07:30:55;;;;;;;9.13;2.90;;;7.70;99.90;;;;;;5013006;28;20082;-86
2023/04/19 07:33:35;;;;;;;8.02;3.10;;;8.20;99.90;;;;;;4951578;29;20411;-86
2023/04/19 07:36:01;;;;;;;7.63;2.70;;;9.70;99.90;;;;;;4936496;29;20058;-85
2023/04/19 07:38:33;;;;;;;7.90;3.10;;;8.70;99.90;;;;;;4952348;29;20055;-87
2023/04/19 07:41:08;;;;;;;9.23;3.20;;;9.00;99.90;;;;;;4935455;29;20500;-85
2023/04/19 07:43:42;;;;;;;8.95;2.80;;;10.00;99.90;;;;;;4951821;28;20392;-85
2023/04/19 07:52:28;;;;;;;11.18;3.15;;;9.20;99.90;;;;;;5337830;23;20064;-85
2023/04/19 07:54:57;;;;;;;9.48;3.10;;;9.30;99.90;;;;;;5051811;28;20045;-87
2023/04/19 07:57:25;;;;;;;7.68;3.10;;;10.10;99.90;;;;;;5034576;28;20098;-86
2023/04/19 07:59:58;;;;;;;8.68;3.25;;;9.10;99.90;;;;;;5050730;28;20057;-85
2023/04/19 08:02:29;;;;;;;8.20;3.33;;;9.10;99.90;;;;;;5034123;28;20159;-86
2023/04/19 08:04:57;;;;;;;8.40;3.15;;;10.80;99.90;;;;;;5052068;28;20393;-86
2023/04/19 08:07:24;;;;;;;9.27;3.25;;;9.20;99.90;;;;;;5034079;28;20041;-86
2023/04/19 08:10:11;;;;;;;8.10;3.00;;;9.50;99.90;;;;;;5052813;28;20052;-86
2023/04/19 08:12:40;;;;;;;10.20;3.63;;;9.60;99.90;;;;;;5035355;28;20056;-85
2023/04/19 08:19:25;;;;;;;9.50;3.47;;;9.10;99.90;;;;;;4994036;28;20073;-87
2023/04/19 08:21:59;;;;;;;9.18;3.60;;;9.80;99.90;;;;;;4992128;28;20486;-88
2023/04/19 08:24:25;;;;;;;9.38;3.80;;;11.60;99.90;;;;;;4976719;28;20046;-85
2023/04/19 08:26:57;;;;;;;9.65;3.70;;;10.20;99.90;;;;;;5012141;28;20077;-83
2023/04/19 08:29:22;;;;;;;9.68;3.15;;;10.30;99.90;;;;;;5010587;28;20041;-82
2023/04/19 08:31:48;;;;;;;9.20;3.55;;;10.40;99.90;;;;;;4996840;28;20482;-82
2023/04/19 08:34:14;;;;;;;8.07;3.17;;;10.40;99.90;;;;;;5001851;28;20401;-84
2023/04/19 08:36:39;;;;;;;9.30;3.20;;;11.70;99.90;;;;;;5022716;28;20505;-82
2023/04/19 08:39:05;;;;;;;7.93;3.20;;;10.50;99.70;;;;;;5016887;28;20049;-83
2023/04/19 08:41:31;;;;;;;8.93;3.50;;;10.90;99.90;;;;;;4998784;28;20042;-82
2023/04/19 08:43:58;;;;;;;12.13;4.00;;;10.70;99.90;;;;;;5001204;28;20046;-83
2023/04/19 08:46:25;;;;;;;9.57;3.55;;;11.70;99.90;;;;;;4997694;28;20046;-83
2023/04/19 08:48:51;;;;;;;8.98;3.20;;;10.90;99.90;;;;;;4998032;28;20104;-82
2023/04/19 08:51:18;;;;;;;8.60;3.40;;;11.00;99.90;;;;;;5014311;28;20391;-84
2023/04/19 08:53:44;;;;;;;8.38;3.13;;;11.00;99.80;;;;;;5015841;28;20038;-83
2023/04/19 08:56:11;;;;;;;10.60;3.50;;;11.20;99.20;;;;;;5020916;23;20057;-82
2023/04/19 08:58:37;;;;;;;11.52;3.47;;;11.10;99.10;;;;;;5015330;28;20540;-83
2023/04/19 09:01:07;;;;;;;7.80;3.20;;;11.20;98.80;;;;;;5014976;28;20088;-82
2023/04/19 09:03:33;;;;;;;8.15;3.22;;;11.20;98.30;;;;;;4996900;28;20141;-83
2023/04/19 09:06:00;;;;;;;9.30;3.40;;;11.30;98.50;;;;;;4997115;28;20096;-82
2023/04/19 09:08:28;;;;;;;8.02;3.20;;;12.20;98.70;;;;;;4997737;28;20459;-82
2023/04/19 09:10:59;;;;;;;8.18;3.35;;;11.50;98.20;;;;;;5014758;28;20374;-83
2023/04/19 09:13:25;;;;;;;9.50;3.30;;;11.70;98.90;;;;;;5016344;28;20050;-82
2023/04/19 09:15:52;;;;;;;8.35;3.30;;;11.90;99.10;;;;;;5003124;28;20073;-83
2023/04/19 09:18:18;;;;;;;8.95;3.22;;;11.90;98.10;;;;;;5015245;28;20050;-82
2023/04/19 09:20:45;;;;;;;9.27;3.13;;;11.90;98.20;;;;;;4997144;28;20042;-82
2023/04/19 09:23:17;;;;;;;7.53;2.80;;;11.90;98.00;;;;;;4996989;28;20057;-83
2023/04/19 09:26:12;;;;;;;10.15;3.05;;;12.00;95.40;;;;;;5014333;28;20077;-83
2023/04/19 09:28:38;;;;;;;9.88;3.20;;;12.90;95.50;;;;;;4986066;28;20129;-83
2023/04/19 09:31:12;;;;;;;9.48;3.13;;;12.10;97.20;;;;;;5014920;28;20389;-84
2023/04/19 09:33:38;;;;;;;10.13;3.58;;;12.10;96.30;;;;;;4996379;28;20049;-83
2023/04/19 09:36:05;;;;;;;8.15;3.50;;;12.20;96.90;;;;;;4996683;28;20062;-83
2023/04/19 09:38:46;;;;;;;8.80;3.10;;;12.20;96.20;;;;;;5013986;28;20050;-82
2023/04/19 09:41:12;;;;;;;7.68;2.70;;;12.80;96.30;;;;;;4996593;28;20037;-83
2023/04/19 09:43:37;;;;;;;7.75;2.88;;;12.50;96.70;;;;;;5013620;28;20074;-82
2023/04/19 09:46:03;;;;;;;8.57;3.22;;;12.60;96.90;;;;;;4995955;28;20367;-82
2023/04/19 09:48:28;;;;;;;11.63;3.00;;;12.70;97.20;;;;;;4996148;28;20045;-83
2023/04/19 09:51:00;;;;;;;7.88;3.05;;;13.70;96.50;;;;;;4996632;28;20042;-83
2023/04/19 09:53:27;;;;;;;7.60;2.78;;;13.50;96.10;;;;;;5013728;28;20114;-84
2023/04/19 09:55:53;;;;;;;7.93;2.63;;;13.60;95.50;;;;;;4998667;28;20050;-83
2023/04/19 09:58:20;;;;;;;8.25;2.70;;;12.80;95.60;;;;;;4996870;28;20068;-83
2023/04/19 10:00:47;;;;;;;7.45;2.90;;;12.80;93.30;;;;;;5013541;28;20129;-83
2023/04/19 10:03:17;;;;;;;8.13;2.67;;;12.90;94.30;;;;;;4996207;28;20482;-83
2023/04/19 10:05:44;;;;;;;8.00;2.55;;;13.00;94.40;;;;;;4998355;28;20049;-83
2023/04/19 10:08:11;;;;;;;8.90;2.58;;;13.20;94.50;;;;;;4998961;28;20510;-84
2023/04/19 10:10:39;;;;;;;7.90;2.80;;;13.50;94.70;;;;;;4998134;28;20048;-85
2023/04/19 10:13:09;;;;;;;9.38;2.80;;;13.50;93.30;;;;;;5014946;28;20429;-85
2023/04/19 10:15:40;;;;;;;7.10;2.70;;;14.60;93.80;;;;;;5015606;28;20546;-86
2023/04/19 10:18:07;;;;;;;9.25;2.80;;;14.00;92.60;;;;;;4996606;28;20133;-86
2023/04/19 10:21:05;;;;;;;8.70;2.80;;;13.50;92.30;;;;;;5013711;28;20069;-86
2023/04/19 10:23:35;;;;;;;7.90;2.70;;;13.10;91.00;;;;;;4996289;28;20058;-86
2023/04/19 10:26:01;;;;;;;8.30;2.78;;;13.70;91.60;;;;;;4996005;28;20076;-84
2023/04/19 10:28:30;;;;;;;8.60;2.90;;;14.20;92.70;;;;;;4995824;28;20046;-84
2023/04/19 10:31:20;;;;;;;7.90;2.80;;;14.50;93.20;;;;;;4995614;28;20045;-84
2023/04/19 10:33:58;;;;;;;9.07;2.70;;;14.30;92.80;;;;;;5013665;28;20044;-84
2023/04/19 10:36:27;;;;;;;8.45;2.83;;;14.50;92.10;;;;;;4992036;28;20046;-87
2023/04/19 10:38:59;;;;;;;8.93;2.80;;;14.60;91.40;;;;;;4977394;28;20129;-87
2023/04/19 10:42:14;;;;;;;7.75;2.70;;;14.80;91.20;;;;;;5013224;28;20494;-85
2023/04/19 10:44:58;;;;;;;;;;;14.80;91.20;;;;;;4980140;28;20080;-85
2023/04/19 10:48:01;;;;;;;12.63;3.00;;;14.90;90.30;;;;;;5013306;28;20374;-85
2023/04/19 10:53:43;;;;;;;10.05;2.90;;;14.90;90.90;;;;;;5117073;23;20415;-86
2023/04/19 10:56:11;;;;;;;7.60;2.40;;;14.90;88.50;;;;;;4957392;28;20051;-87
2023/04/19 10:59:11;;;;;;;8.43;2.80;;;15.10;90.10;;;;;;4974781;28;20077;-84
2023/04/19 11:01:44;;;;;;;8.07;2.80;;;15.10;90.30;;;;;;4957689;28;20050;-85
2023/04/19 11:04:21;;;;;;;9.48;2.88;;;15.30;90.90;;;;;;4983952;28;20122;-85
2023/04/19 11:06:52;;;;;;;7.30;2.47;;;15.30;90.70;;;;;;4993004;28;20034;-84
2023/04/19 11:09:34;;;;;;;7.45;2.65;;;15.20;88.70;;;;;;4993204;28;20114;-84
2023/04/19 11:12:02;;;;;;;7.53;2.67;;;15.30;89.60;;;;;;4976702;28;20505;-86
2023/04/19 11:14:43;;;;;;;8.27;2.88;;;15.10;90.40;;;;;;4975618;28;20038;-87
2023/04/19 11:17:17;;;;;;;7.75;2.65;;;15.30;90.10;;;;;;4975847;28;20454;-86
2023/04/19 11:19:44;;;;;;;7.47;2.70;;;15.60;89.60;;;;;;4975960;28;20046;-85
2023/04/19 11:22:10;;;;;;;7.50;2.67;;;15.80;90.50;;;;;;4975575;28;20134;-85
2023/04/19 11:24:36;;;;;;;7.85;2.55;;;15.40;90.50;;;;;;4992199;28;20106;-85
2023/04/19 11:27:08;;;;;;;6.88;2.65;;;15.60;90.60;;;;;;4975933;28;20050;-85
2023/04/19 11:29:33;;;;;;;7.63;2.80;;;16.70;90.60;;;;;;4975709;28;20057;-85
2023/04/19 11:32:09;;;;;;;7.72;2.85;;;15.60;90.60;;;;;;4992460;28;20038;-86
2023/04/19 11:34:36;;;;;;;10.15;2.78;;;15.90;90.60;;;;;;4975978;28;20054;-88
2023/04/19 11:40:43;;;;;;;8.50;2.70;;;15.50;90.00;;;;;;5018885;23;20465;-84
2023/04/19 11:43:09;;;;;;;7.93;2.75;;;16.10;90.80;;;;;;5035969;28;20057;-84
2023/04/19 11:45:38;;;;;;;7.93;2.97;;;16.30;90.30;;;;;;5066414;28;20132;-85
2023/04/19 11:48:04;;;;;;;7.65;2.80;;;16.50;90.30;;;;;;5072690;28;20044;-86
2023/04/19 11:50:36;;;;;;;8.77;3.30;;;15.90;90.10;;;;;;5054344;28;20125;-84
2023/04/19 11:53:14;;;;;;;8.23;3.00;;;15.90;90.20;;;;;;5071689;28;20048;-84
2023/04/19 11:55:46;;;;;;;7.93;3.08;;;15.90;90.40;;;;;;5072281;28;20090;-84
2023/04/19 11:58:25;;;;;;;7.80;3.10;;;16.00;90.60;;;;;;5054125;28;20048;-83
2023/04/19 12:00:51;;;;;;;9.15;3.05;;;16.20;90.50;;;;;;5071816;28;20048;-84
2023/04/19 12:03:21;;;;;;;8.25;3.00;;;16.30;90.30;;;;;;5054120;28;20044;-83
2023/04/19 12:05:58;;;;;;;8.73;3.17;;;16.20;90.40;;;;;;5054967;28;20048;-85
2023/04/19 12:08:35;;;;;;;7.80;3.08;;;16.10;89.20;;;;;;5057722;28;20041;-83
2023/04/19 12:11:02;;;;;;;10.45;3.33;;;16.50;90.90;;;;;;5075859;28;20068;-83
2023/04/19 12:13:30;;;;;;;8.10;3.13;;;16.20;90.80;;;;;;5056967;28;20480;-86
2023/04/19 12:15:56;;;;;;;9.15;3.33;;;16.40;90.30;;;;;;5057774;28;20059;-84
2023/04/19 12:18:22;;;;;;;7.35;3.00;;;16.40;90.70;;;;;;5079084;28;20110;-83
2023/04/19 12:20:49;;;;;;;8.10;3.03;;;16.30;90.00;;;;;;5083865;28;20055;-84
2023/04/19 12:23:16;;;;;;;7.75;3.28;;;16.40;89.70;;;;;;5032385;28;20329;-83
2023/04/19 12:25:44;;;;;;;8.18;3.28;;;16.50;90.50;;;;;;5029667;28;20480;-84
2023/04/19 12:28:11;;;;;;;7.82;3.40;;;16.70;90.50;;;;;;5022285;28;20486;-83
2023/04/19 12:30:37;;;;;;;9.98;3.63;;;16.70;90.50;;;;;;5027221;28;20110;-85
2023/04/19 12:33:03;;;;;;;9.10;3.40;;;16.70;90.60;;;;;;5038185;28;20056;-85
2023/04/19 12:35:29;;;;;;;8.98;3.60;;;16.60;90.50;;;;;;5036994;28;20032;-86
2023/04/19 12:37:57;;;;;;;9.35;3.60;;;17.00;90.90;;;;;;5037644;28;20393;-85
2023/04/19 12:40:24;;;;;;;9.73;3.65;;;16.90;91.00;;;;;;5044466;28;20044;-84
2023/04/19 12:42:51;;;;;;;11.23;3.92;;;16.90;91.30;;;;;;5074662;28;20044;-87
2023/04/19 12:45:17;;;;;;;10.77;4.10;;;16.90;91.40;;;;;;5075102;28;20084;-85
2023/04/19 12:47:45;;;;;;;11.73;3.70;;;16.80;91.10;;;;;;5057402;28;20080;-84
2023/04/19 12:50:12;;;;;;;9.15;3.60;;;17.00;91.50;;;;;;5056987;28;20033;-85
2023/04/19 12:52:38;;;;;;;8.45;3.78;;;17.10;91.70;;;;;;5057999;28;20052;-85
2023/04/19 12:55:04;;;;;;;9.38;3.78;;;17.30;91.60;;;;;;5075768;28;20395;-87
2023/04/19 12:57:30;;;;;;;8.82;3.78;;;17.20;91.30;;;;;;5074988;28;20052;-85
2023/04/19 12:59:56;;;;;;;8.60;3.78;;;17.10;91.10;;;;;;5057482;28;20051;-86
2023/04/19 13:02:22;;;;;;;10.90;3.70;;;16.90;90.80;;;;;;5056989;28;20055;-86
2023/04/19 13:04:48;;;;;;;8.75;3.60;;;17.00;91.20;;;;;;5048561;28;20079;-88
2023/04/19 13:07:13;;;;;;;8.40;3.53;;;17.20;90.80;;;;;;5045871;28;20531;-84
2023/04/19 13:09:39;;;;;;;9.23;3.72;;;16.80;90.40;;;;;;5037458;28;20052;-83
2023/04/19 13:12:05;;;;;;;9.63;4.03;;;16.80;90.90;;;;;;5058448;28;20052;-83
2023/04/19 13:14:31;;;;;;;9.55;3.63;;;16.80;91.20;;;;;;5077157;28;20055;-86